createdAt,value
2023-04-23T00:00:17.672Z,9.746077
2023-04-23T00:01:17.638Z,9.746103
2023-04-23T00:02:17.732Z,9.746163
2023-04-23T00:03:17.747Z,9.746476
2023-04-23T00:04:17.735Z,9.746349
2023-04-23T00:05:17.650Z,9.746344
2023-04-23T00:06:17.624Z,9.745873
2023-04-23T00:07:17.591Z,9.745881
2023-04-23T00:08:17.591Z,9.746016
2023-04-23T00:09:17.567Z,9.745703
2023-04-23T00:10:17.607Z,9.745517
2023-04-23T00:11:17.559Z,9.745517
2023-04-23T00:12:17.538Z,9.745517
2023-04-23T00:13:17.538Z,9.745517
2023-04-23T00:14:17.534Z,9.745106
2023-04-23T00:15:17.548Z,9.745477
2023-04-23T00:16:17.563Z,9.745527
2023-04-23T00:17:17.518Z,9.745499
2023-04-23T00:18:17.635Z,9.745230
2023-04-23T00:19:17.501Z,9.745326
2023-04-23T00:20:17.510Z,9.745828
2023-04-23T00:21:17.472Z,9.745748
2023-04-23T00:22:17.467Z,9.745921
2023-04-23T00:23:17.456Z,9.745801
2023-04-23T00:24:17.452Z,9.745425
2023-04-23T00:25:17.475Z,9.745020
2023-04-23T00:26:17.434Z,9.745286
2023-04-23T00:27:17.424Z,9.745907
2023-04-23T00:28:17.425Z,9.745891
2023-04-23T00:29:17.413Z,9.745891
2023-04-23T00:30:17.509Z,9.745891
2023-04-23T00:31:17.445Z,9.745891
2023-04-23T00:32:17.390Z,9.745292
2023-04-23T00:33:17.384Z,9.745481
2023-04-23T00:34:17.366Z,9.745473
2023-04-23T00:35:17.361Z,9.745800
2023-04-23T00:36:17.383Z,9.745356
2023-04-23T00:37:17.365Z,9.745375
2023-04-23T00:38:17.338Z,9.745641
2023-04-23T00:39:17.331Z,9.745480
2023-04-23T00:40:17.335Z,9.745291
2023-04-23T00:41:17.362Z,9.745014
2023-04-23T00:42:17.332Z,9.745925
2023-04-23T00:43:17.295Z,9.746150
2023-04-23T00:44:17.492Z,9.745851
2023-04-23T00:45:17.350Z,9.746123
2023-04-23T00:46:17.363Z,9.746390
2023-04-23T00:47:17.333Z,9.746308
2023-04-23T00:48:17.423Z,9.745885
2023-04-23T00:49:17.249Z,9.745757
2023-04-23T00:50:17.368Z,9.745828
2023-04-23T00:51:17.243Z,9.745831
2023-04-23T00:52:17.222Z,9.745389
2023-04-23T00:53:17.223Z,9.744591
2023-04-23T00:54:17.227Z,9.744761
2023-04-23T00:55:17.207Z,9.746309
2023-04-23T00:56:17.224Z,9.745957
2023-04-23T00:57:17.193Z,9.745993
2023-04-23T00:58:17.204Z,9.745936
2023-04-23T00:59:17.170Z,9.746090
2023-04-23T01:00:17.163Z,9.745892
2023-04-23T01:01:17.264Z,9.745789
2023-04-23T01:02:17.209Z,9.746489
2023-04-23T01:03:17.265Z,9.746254
2023-04-23T01:04:17.207Z,9.746143
2023-04-23T01:05:17.124Z,9.746191
2023-04-23T01:06:17.140Z,9.746268
2023-04-23T01:07:17.108Z,9.745831
2023-04-23T01:08:17.112Z,9.746245
2023-04-23T01:09:17.094Z,9.745889
2023-04-23T01:10:17.093Z,9.745823
2023-04-23T01:11:17.110Z,9.745846
2023-04-23T01:12:17.091Z,9.745846
2023-04-23T01:13:17.055Z,9.745931
2023-04-23T01:14:17.059Z,9.745976
2023-04-23T01:15:17.049Z,9.746024
2023-04-23T01:16:17.077Z,9.745977
2023-04-23T01:17:17.031Z,9.745996
2023-04-23T01:18:17.039Z,9.745616
2023-04-23T01:19:17.018Z,9.745862
2023-04-23T01:20:17.017Z,9.746166
2023-04-23T01:21:17.105Z,9.745570
2023-04-23T01:22:17.004Z,9.745487
2023-04-23T01:23:17.005Z,9.745454
2023-04-23T01:24:16.973Z,9.745494
2023-04-23T01:25:16.978Z,9.745421
2023-04-23T01:26:16.984Z,9.745365
2023-04-23T01:27:16.953Z,9.745444
2023-04-23T01:28:17.051Z,9.745444
2023-04-23T01:29:16.944Z,9.745555
2023-04-23T01:30:16.929Z,9.745778
2023-04-23T01:31:17.002Z,9.745623
2023-04-23T01:32:16.921Z,9.745350
2023-04-23T01:33:17.913Z,9.745534
2023-04-23T01:34:16.893Z,9.745502
2023-04-23T01:35:16.895Z,9.745512
2023-04-23T01:36:16.909Z,9.745400
2023-04-23T01:37:16.871Z,9.745444
2023-04-23T01:38:16.861Z,9.745537
2023-04-23T01:39:16.856Z,9.745315
2023-04-23T01:40:16.843Z,9.745371
2023-04-23T01:41:16.870Z,9.745607
2023-04-23T01:42:16.833Z,9.745502
2023-04-23T01:43:16.821Z,9.745486
2023-04-23T01:44:16.823Z,9.745476
2023-04-23T01:45:16.807Z,9.745525
2023-04-23T01:46:16.849Z,9.745410
2023-04-23T01:47:16.799Z,9.745607
2023-04-23T01:48:16.857Z,9.745433
2023-04-23T01:49:16.781Z,9.745695
2023-04-23T01:50:16.770Z,9.745679
2023-04-23T01:51:16.787Z,9.745720
2023-04-23T01:52:16.754Z,9.745605
2023-04-23T01:53:16.752Z,9.745485
2023-04-23T01:54:16.736Z,9.745434
2023-04-23T01:55:16.734Z,9.745574
2023-04-23T01:56:16.745Z,9.745768
2023-04-23T01:57:16.711Z,9.745624
2023-04-23T01:58:16.703Z,9.745683
2023-04-23T01:59:16.697Z,9.745811
2023-04-23T02:00:16.687Z,9.745361
2023-04-23T02:01:16.724Z,9.745312
2023-04-23T02:02:16.717Z,9.745379
2023-04-23T02:03:16.728Z,9.745298
2023-04-23T02:04:16.834Z,9.745193
2023-04-23T02:05:16.782Z,9.745493
2023-04-23T02:06:16.679Z,9.745436
2023-04-23T02:07:16.664Z,9.745129
2023-04-23T02:08:16.643Z,9.745396
2023-04-23T02:09:16.640Z,9.745357
2023-04-23T02:10:16.615Z,9.745266
2023-04-23T02:11:16.632Z,9.745430
2023-04-23T02:12:16.606Z,9.745505
2023-04-23T02:13:16.589Z,9.745477
2023-04-23T02:14:16.581Z,9.745577
2023-04-23T02:15:16.616Z,9.745786
2023-04-23T02:16:16.637Z,9.745708
2023-04-23T02:17:16.559Z,9.745688
2023-04-23T02:18:16.549Z,9.745509
2023-04-23T02:19:16.809Z,9.745581
2023-04-23T02:20:16.546Z,9.745668
2023-04-23T02:21:16.552Z,9.745690
2023-04-23T02:22:16.513Z,9.745537
2023-04-23T02:23:16.507Z,9.745550
2023-04-23T02:24:16.508Z,9.745513
2023-04-23T02:25:16.491Z,9.745558
2023-04-23T02:26:16.505Z,9.745450
2023-04-23T02:27:16.475Z,9.745675
2023-04-23T02:28:16.472Z,9.745690
2023-04-23T02:29:16.457Z,9.745537
2023-04-23T02:30:16.456Z,9.745455
2023-04-23T02:31:16.544Z,9.745477
2023-04-23T02:32:16.431Z,9.745412
2023-04-23T02:33:16.430Z,9.745465
2023-04-23T02:34:16.419Z,9.745655
2023-04-23T02:35:16.427Z,9.745680
2023-04-23T02:36:16.436Z,9.745744
2023-04-23T02:37:16.398Z,9.745513
2023-04-23T02:38:16.390Z,9.745723
2023-04-23T02:39:16.365Z,9.746016
2023-04-23T02:40:17.384Z,9.745874
2023-04-23T02:41:16.384Z,9.745754
2023-04-23T02:42:16.352Z,9.745582
2023-04-23T02:43:16.362Z,9.745717
2023-04-23T02:44:16.339Z,9.745429
2023-04-23T02:45:16.345Z,9.745442
2023-04-23T02:46:16.385Z,9.745756
2023-04-23T02:47:16.316Z,9.745687
2023-04-23T02:48:16.308Z,9.745312
2023-04-23T02:49:16.289Z,9.745522
2023-04-23T02:50:16.297Z,9.745598
2023-04-23T02:51:16.311Z,9.745435
2023-04-23T02:52:16.275Z,9.745487
2023-04-23T02:53:16.370Z,9.745500
2023-04-23T02:54:16.275Z,9.745592
2023-04-23T02:55:16.249Z,9.745319
2023-04-23T02:56:16.267Z,9.745454
2023-04-23T02:57:16.228Z,9.745666
2023-04-23T02:58:16.218Z,9.745643
2023-04-23T02:59:16.225Z,9.745603
2023-04-23T03:00:16.209Z,9.745610
2023-04-23T03:01:16.237Z,9.745648
2023-04-23T03:02:16.254Z,9.745601
2023-04-23T03:03:16.314Z,9.745503
2023-04-23T03:04:16.184Z,9.745436
2023-04-23T03:05:16.163Z,9.745489
2023-04-23T03:06:16.193Z,9.745481
2023-04-23T03:07:16.153Z,9.745735
2023-04-23T03:08:16.151Z,9.745612
2023-04-23T03:09:16.134Z,9.745548
2023-04-23T03:10:16.161Z,9.745629
2023-04-23T03:11:16.146Z,9.745630
2023-04-23T03:12:16.117Z,9.745287
2023-04-23T03:13:16.287Z,9.744522
2023-04-23T03:14:16.099Z,9.745321
2023-04-23T03:15:16.093Z,9.745560
2023-04-23T03:16:16.131Z,9.745262
2023-04-23T03:17:16.083Z,9.745674
2023-04-23T03:18:16.075Z,9.745483
2023-04-23T03:19:16.060Z,9.745365
2023-04-23T03:20:16.043Z,9.745451
2023-04-23T03:21:17.097Z,9.745201
2023-04-23T03:22:16.041Z,9.745195
2023-04-23T03:23:16.034Z,9.745666
2023-04-23T03:24:16.020Z,9.745533
2023-04-23T03:25:16.020Z,9.745365
2023-04-23T03:26:16.008Z,9.745615
2023-04-23T03:27:16.021Z,9.745640
2023-04-23T03:28:15.995Z,9.745749
2023-04-23T03:29:16.068Z,9.745562
2023-04-23T03:30:15.976Z,9.745612
2023-04-23T03:31:16.021Z,9.745563
2023-04-23T03:32:15.980Z,9.745482
2023-04-23T03:33:15.954Z,9.745565
2023-04-23T03:34:15.946Z,9.745722
2023-04-23T03:35:16.953Z,9.745575
2023-04-23T03:36:16.930Z,9.745749
2023-04-23T03:37:15.942Z,9.745754
2023-04-23T03:38:15.907Z,9.745451
2023-04-23T03:39:15.912Z,9.745196
2023-04-23T03:40:15.926Z,9.745214
2023-04-23T03:41:16.544Z,9.745341
2023-04-23T03:42:15.903Z,9.745249
2023-04-23T03:43:15.870Z,9.745212
2023-04-23T03:44:15.872Z,9.745258
2023-04-23T03:45:15.860Z,9.745173
2023-04-23T03:46:15.853Z,9.744796
2023-04-23T03:47:15.872Z,9.745714
2023-04-23T03:48:15.842Z,9.745480
2023-04-23T03:49:15.853Z,9.745250
2023-04-23T03:50:15.818Z,9.745331
2023-04-23T03:51:15.809Z,9.745483
2023-04-23T03:52:15.823Z,9.745403
2023-04-23T03:53:15.794Z,9.745495
2023-04-23T03:54:15.794Z,9.745468
2023-04-23T03:55:15.776Z,9.745442
2023-04-23T03:56:15.778Z,9.745431
2023-04-23T03:57:15.799Z,9.745520
2023-04-23T03:58:15.754Z,9.745540
2023-04-23T03:59:15.752Z,9.745526
2023-04-23T04:00:15.738Z,9.745462
2023-04-23T04:01:15.732Z,9.745594
2023-04-23T04:02:15.886Z,9.745526
2023-04-23T04:03:15.837Z,9.745543
2023-04-23T04:04:16.026Z,9.745554
2023-04-23T04:05:15.909Z,9.745654
2023-04-23T04:06:15.698Z,9.745682
2023-04-23T04:07:15.715Z,9.745611
2023-04-23T04:08:15.730Z,9.745540
2023-04-23T04:09:16.674Z,9.745506
2023-04-23T04:10:15.669Z,9.745744
2023-04-23T04:11:15.670Z,9.745785
2023-04-23T04:12:15.675Z,9.745643
2023-04-23T04:13:15.646Z,9.745529
2023-04-23T04:14:15.634Z,9.745561
2023-04-23T04:15:15.625Z,9.745295
2023-04-23T04:16:15.642Z,9.745359
2023-04-23T04:17:15.623Z,9.745696
2023-04-23T04:18:15.627Z,9.745658
2023-04-23T04:19:15.600Z,9.745783
2023-04-23T04:20:15.589Z,9.745862
2023-04-23T04:21:15.578Z,9.745860
2023-04-23T04:22:15.577Z,9.745892
2023-04-23T04:23:15.606Z,9.745855
2023-04-23T04:24:15.562Z,9.745713
2023-04-23T04:25:15.548Z,9.745656
2023-04-23T04:26:15.537Z,9.745612
2023-04-23T04:27:15.538Z,9.745538
2023-04-23T04:28:15.540Z,9.745354
2023-04-23T04:29:15.519Z,9.745501
2023-04-23T04:30:15.511Z,9.745705
2023-04-23T04:31:15.528Z,9.745626
2023-04-23T04:32:15.489Z,9.745523
2023-04-23T04:33:15.505Z,9.745595
2023-04-23T04:34:15.473Z,9.745662
2023-04-23T04:35:15.465Z,9.745755
2023-04-23T04:36:15.450Z,9.745959
2023-04-23T04:37:15.460Z,9.746042
2023-04-23T04:38:15.460Z,9.745773
2023-04-23T04:39:15.437Z,9.745669
2023-04-23T04:40:15.428Z,9.745520
2023-04-23T04:41:15.413Z,9.745474
2023-04-23T04:42:15.436Z,9.745475
2023-04-23T04:43:15.397Z,9.745362
2023-04-23T04:44:15.390Z,9.745264
2023-04-23T04:45:15.384Z,9.745457
2023-04-23T04:46:15.419Z,9.745466
2023-04-23T04:47:15.393Z,9.745711
2023-04-23T04:48:15.385Z,9.745473
2023-04-23T04:49:15.357Z,9.745271
2023-04-23T04:50:15.346Z,9.745131
2023-04-23T04:51:15.343Z,9.745185
2023-04-23T04:52:15.357Z,9.745317
2023-04-23T04:53:15.323Z,9.745504
2023-04-23T04:54:15.311Z,9.745241
2023-04-23T04:55:15.306Z,9.745277
2023-04-23T04:56:15.290Z,9.745324
2023-04-23T04:57:15.316Z,9.745355
2023-04-23T04:58:15.281Z,9.745464
2023-04-23T04:59:15.286Z,9.745417
2023-04-23T05:00:15.267Z,9.745142
2023-04-23T05:01:15.267Z,9.745321
2023-04-23T05:02:15.366Z,9.745206
2023-04-23T05:03:15.373Z,9.745316
2023-04-23T05:04:15.461Z,9.745362
2023-04-23T05:05:15.239Z,9.745290
2023-04-23T05:06:15.222Z,9.745266
2023-04-23T05:07:15.237Z,9.745447
2023-04-23T05:08:15.210Z,9.745229
2023-04-23T05:09:15.202Z,9.745427
2023-04-23T05:10:15.197Z,9.745321
2023-04-23T05:11:16.196Z,9.745545
2023-04-23T05:12:15.205Z,9.745379
2023-04-23T05:13:15.178Z,9.745463
2023-04-23T05:14:15.163Z,9.745443
2023-04-23T05:15:15.176Z,9.745489
2023-04-23T05:16:15.199Z,9.745512
2023-04-23T05:17:15.145Z,9.745517
2023-04-23T05:18:15.163Z,9.745594
2023-04-23T05:19:15.144Z,9.745567
2023-04-23T05:20:15.124Z,9.745498
2023-04-23T05:21:15.136Z,9.745479
2023-04-23T05:22:15.095Z,9.745487
2023-04-23T05:23:15.139Z,9.745477
2023-04-23T05:24:15.086Z,9.745465
2023-04-23T05:25:15.089Z,9.745468
2023-04-23T05:26:15.199Z,9.745425
2023-04-23T05:27:15.076Z,9.745569
2023-04-23T05:28:15.073Z,9.745434
2023-04-23T05:29:15.045Z,9.745673
2023-04-23T05:30:15.049Z,9.745808
2023-04-23T05:31:15.039Z,9.745677
2023-04-23T05:32:15.097Z,9.745582
2023-04-23T05:33:15.038Z,9.745590
2023-04-23T05:34:15.011Z,9.745637
2023-04-23T05:35:15.008Z,9.745504
2023-04-23T05:36:14.989Z,9.745431
2023-04-23T05:37:14.981Z,9.745427
2023-04-23T05:38:14.997Z,9.745468
2023-04-23T05:39:14.996Z,9.745366
2023-04-23T05:40:14.953Z,9.745614
2023-04-23T05:41:14.955Z,9.745853
2023-04-23T05:42:14.954Z,9.745380
2023-04-23T05:43:14.956Z,9.745422
2023-04-23T05:44:14.925Z,9.745291
2023-04-23T05:45:14.945Z,9.745572
2023-04-23T05:46:14.957Z,9.745493
2023-04-23T05:47:14.910Z,9.745285
2023-04-23T05:48:14.915Z,9.745433
2023-04-23T05:49:14.892Z,9.745558
2023-04-23T05:50:14.900Z,9.745295
2023-04-23T05:51:14.869Z,9.745200
2023-04-23T05:52:14.868Z,9.745042
2023-04-23T05:53:14.883Z,9.745395
2023-04-23T05:54:14.861Z,9.745434
2023-04-23T05:55:14.839Z,9.745083
2023-04-23T05:56:14.839Z,9.745076
2023-04-23T05:57:14.821Z,9.745114
2023-04-23T05:58:14.837Z,9.745561
2023-04-23T05:59:14.802Z,9.745012
2023-04-23T06:00:14.798Z,9.745191
2023-04-23T06:01:14.787Z,9.745234
2023-04-23T06:02:14.895Z,9.745427
2023-04-23T06:03:15.002Z,9.745507
2023-04-23T06:04:14.891Z,9.745489
2023-04-23T06:05:15.030Z,9.745487
2023-04-23T06:06:14.745Z,9.745461
2023-04-23T06:07:14.738Z,9.745362
2023-04-23T06:08:14.763Z,9.745248
2023-04-23T06:09:14.725Z,9.745228
2023-04-23T06:10:14.712Z,9.745136
2023-04-23T06:11:14.716Z,9.745091
2023-04-23T06:12:14.705Z,9.745290
2023-04-23T06:13:14.724Z,9.745206
2023-04-23T06:14:14.701Z,9.745437
2023-04-23T06:15:14.684Z,9.745460
2023-04-23T06:16:14.697Z,9.745450
2023-04-23T06:17:14.665Z,9.745568
2023-04-23T06:18:14.794Z,9.746033
2023-04-23T06:19:14.651Z,9.745752
2023-04-23T06:20:15.642Z,9.745455
2023-04-23T06:21:14.652Z,9.745481
2023-04-23T06:22:14.629Z,9.745175
2023-04-23T06:23:14.638Z,9.745067
2023-04-23T06:24:14.609Z,9.745206
2023-04-23T06:25:14.608Z,9.745158
2023-04-23T06:26:14.589Z,9.745292
2023-04-23T06:27:14.582Z,9.745492
2023-04-23T06:28:14.601Z,9.745206
2023-04-23T06:29:14.570Z,9.745239
2023-04-23T06:30:14.561Z,9.745350
2023-04-23T06:31:14.578Z,9.745364
2023-04-23T06:32:14.545Z,9.745420
2023-04-23T06:33:14.565Z,9.745406
2023-04-23T06:34:14.531Z,9.745108
2023-04-23T06:35:14.536Z,9.745138
2023-04-23T06:36:14.514Z,9.745094
2023-04-23T06:37:14.502Z,9.745351
2023-04-23T06:38:14.519Z,9.745131
2023-04-23T06:39:14.488Z,9.745119
2023-04-23T06:40:14.484Z,9.744887
2023-04-23T06:41:14.479Z,9.745004
2023-04-23T06:42:14.469Z,9.745366
2023-04-23T06:43:14.495Z,9.745358
2023-04-23T06:44:14.449Z,9.745630
2023-04-23T06:45:14.442Z,9.745690
2023-04-23T06:46:14.434Z,9.745672
2023-04-23T06:47:14.428Z,9.745696
2023-04-23T06:48:14.451Z,9.745575
2023-04-23T06:49:14.407Z,9.745552
2023-04-23T06:50:14.402Z,9.745337
2023-04-23T06:51:14.391Z,9.745730
2023-04-23T06:52:14.392Z,9.745481
2023-04-23T06:53:14.766Z,9.745578
2023-04-23T06:54:14.370Z,9.745661
2023-04-23T06:55:14.385Z,9.745561
2023-04-23T06:56:14.654Z,9.745616
2023-04-23T06:57:14.343Z,9.745627
2023-04-23T06:58:15.551Z,9.745541
2023-04-23T06:59:15.351Z,9.745530
2023-04-23T07:00:14.318Z,9.745663
2023-04-23T07:01:14.349Z,9.745339
2023-04-23T07:02:14.335Z,9.745444
2023-04-23T07:03:14.339Z,9.745565
2023-04-23T07:04:14.359Z,9.745635
2023-04-23T07:05:14.290Z,9.745530
2023-04-23T07:06:14.284Z,9.745334
2023-04-23T07:07:14.289Z,9.745211
2023-04-23T07:08:14.271Z,9.745487
2023-04-23T07:09:14.289Z,9.745576
2023-04-23T07:10:16.954Z,9.745469
2023-04-23T07:11:14.258Z,9.745480
2023-04-23T07:12:14.246Z,9.745338
2023-04-23T07:13:14.240Z,9.745363
2023-04-23T07:14:14.254Z,9.745734
2023-04-23T07:15:14.236Z,9.745669
2023-04-23T07:16:14.238Z,9.745548
2023-04-23T07:17:14.215Z,9.745591
2023-04-23T07:18:14.216Z,9.745509
2023-04-23T07:19:14.224Z,9.745444
2023-04-23T07:20:14.190Z,9.745455
2023-04-23T07:21:14.182Z,9.745472
2023-04-23T07:22:14.176Z,9.745618
2023-04-23T07:23:14.171Z,9.745482
2023-04-23T07:24:14.188Z,9.745535
2023-04-23T07:25:14.154Z,9.745558
2023-04-23T07:26:14.152Z,9.745468
2023-04-23T07:27:14.144Z,9.745145
2023-04-23T07:28:14.133Z,9.745297
2023-04-23T07:29:14.184Z,9.745608
2023-04-23T07:30:14.129Z,9.746012
2023-04-23T07:31:14.112Z,9.745712
2023-04-23T07:32:14.236Z,9.745707
2023-04-23T07:33:14.098Z,9.745189
2023-04-23T07:34:14.111Z,9.745264
2023-04-23T07:35:14.081Z,9.745443
2023-04-23T07:36:14.075Z,9.745380
2023-04-23T07:37:14.069Z,9.745553
2023-04-23T07:38:14.059Z,9.745567
2023-04-23T07:39:14.078Z,9.745564
2023-04-23T07:40:14.052Z,9.745360
2023-04-23T07:41:14.043Z,9.745090
2023-04-23T07:42:14.033Z,9.745427
2023-04-23T07:43:14.032Z,9.745294
2023-04-23T07:44:14.040Z,9.745579
2023-04-23T07:45:14.015Z,9.745583
2023-04-23T07:46:14.020Z,9.745422
2023-04-23T07:47:13.990Z,9.745515
2023-04-23T07:48:13.987Z,9.745558
2023-04-23T07:49:14.227Z,9.745777
2023-04-23T07:50:13.970Z,9.745697
2023-04-23T07:51:13.964Z,9.745503
2023-04-23T07:52:13.965Z,9.745510
2023-04-23T07:53:13.950Z,9.745498
2023-04-23T07:54:13.961Z,9.745640
2023-04-23T07:55:13.932Z,9.745722
2023-04-23T07:56:13.934Z,9.745758
2023-04-23T07:57:14.931Z,9.745696
2023-04-23T07:58:13.917Z,9.745714
2023-04-23T07:59:13.933Z,9.745726
2023-04-23T08:00:13.899Z,9.745976
2023-04-23T08:01:13.891Z,9.745719
2023-04-23T08:02:14.117Z,9.745595
2023-04-23T08:03:13.968Z,9.745673
2023-04-23T08:04:15.141Z,9.745711
2023-04-23T08:05:13.874Z,9.745708
2023-04-23T08:06:13.855Z,9.745784
2023-04-23T08:07:13.849Z,9.745731
2023-04-23T08:08:13.841Z,9.745689
2023-04-23T08:09:13.862Z,9.745908
2023-04-23T08:10:13.828Z,9.745773
2023-04-23T08:11:13.823Z,9.745691
2023-04-23T08:12:13.826Z,9.745593
2023-04-23T08:13:13.806Z,9.745735
2023-04-23T08:14:13.797Z,9.745817
2023-04-23T08:15:13.817Z,9.745525
2023-04-23T08:16:13.813Z,9.745622
2023-04-23T08:17:13.776Z,9.745650
2023-04-23T08:18:13.770Z,9.745637
2023-04-23T08:19:13.764Z,9.745669
2023-04-23T08:20:13.786Z,9.745691
2023-04-23T08:21:13.745Z,9.745606
2023-04-23T08:22:13.736Z,9.745528
2023-04-23T08:23:13.723Z,9.745578
2023-04-23T08:24:13.722Z,9.745439
2023-04-23T08:25:14.739Z,9.745683
2023-04-23T08:26:13.712Z,9.745546
2023-04-23T08:27:13.701Z,9.745252
2023-04-23T08:28:13.694Z,9.745243
2023-04-23T08:29:13.685Z,9.745502
2023-04-23T08:30:13.702Z,9.745460
2023-04-23T08:31:25.845Z,9.745526
2023-04-23T08:32:15.737Z,9.745521
2023-04-23T08:33:13.654Z,9.745427
2023-04-23T08:34:13.652Z,9.745416
2023-04-23T08:35:13.668Z,9.744996
2023-04-23T08:36:13.633Z,9.745607
2023-04-23T08:37:23.068Z,9.745633
2023-04-23T08:38:15.620Z,9.745636
2023-04-23T08:39:13.608Z,9.745766
2023-04-23T08:40:13.870Z,9.745238
2023-04-23T08:41:13.596Z,9.745035
2023-04-23T08:42:13.586Z,9.745418
2023-04-23T08:43:13.583Z,9.745571
2023-04-23T08:44:13.573Z,9.745611
2023-04-23T08:45:13.599Z,9.745654
2023-04-23T08:46:13.606Z,9.745573
2023-04-23T08:47:13.571Z,9.745594
2023-04-23T08:48:13.555Z,9.745547
2023-04-23T08:49:13.540Z,9.745667
2023-04-23T08:50:13.564Z,9.745519
2023-04-23T08:51:13.518Z,9.745601
2023-04-23T08:52:13.519Z,9.745650
2023-04-23T08:53:13.508Z,9.745798
2023-04-23T08:54:13.499Z,9.745311
2023-04-23T08:55:13.524Z,9.745703
2023-04-23T08:56:13.493Z,9.745502
2023-04-23T08:57:13.481Z,9.745409
2023-04-23T08:58:13.527Z,9.745398
2023-04-23T08:59:13.467Z,9.745504
2023-04-23T09:00:13.498Z,9.745750
2023-04-23T09:01:13.503Z,9.745464
2023-04-23T09:02:13.530Z,9.745715
2023-04-23T09:03:13.540Z,9.745708
2023-04-23T09:04:13.433Z,9.745774
2023-04-23T09:05:13.485Z,9.745816
2023-04-23T09:06:13.438Z,9.745524
2023-04-23T09:07:13.410Z,9.745406
2023-04-23T09:08:13.407Z,9.745383
2023-04-23T09:09:13.402Z,9.745593
2023-04-23T09:10:14.822Z,9.745587
2023-04-23T09:11:13.408Z,9.745711
2023-04-23T09:12:13.385Z,9.745606
2023-04-23T09:13:13.377Z,9.745630
2023-04-23T09:14:13.372Z,9.745646
2023-04-23T09:15:13.483Z,9.745595
2023-04-23T09:16:13.388Z,9.745833
2023-04-23T09:17:13.338Z,9.745395
2023-04-23T09:18:13.336Z,9.745461
2023-04-23T09:19:13.331Z,9.745478
2023-04-23T09:20:13.344Z,9.745449
2023-04-23T09:21:13.321Z,9.745417
2023-04-23T09:22:13.307Z,9.745558
2023-04-23T09:23:13.297Z,9.745765
2023-04-23T09:24:13.306Z,9.745728
2023-04-23T09:25:13.308Z,9.745625
2023-04-23T09:26:13.280Z,9.745930
2023-04-23T09:27:13.278Z,9.745676
2023-04-23T09:28:13.265Z,9.745483
2023-04-23T09:29:13.251Z,9.745710
2023-04-23T09:30:13.293Z,9.745662
2023-04-23T09:31:13.235Z,9.745614
2023-04-23T09:32:13.293Z,9.745657
2023-04-23T09:33:13.231Z,9.745664
2023-04-23T09:34:13.214Z,9.745556
2023-04-23T09:35:13.231Z,9.745557
2023-04-23T09:36:13.198Z,9.745552
2023-04-23T09:37:13.192Z,9.745379
2023-04-23T09:38:13.185Z,9.745709
2023-04-23T09:39:13.179Z,9.745729
2023-04-23T09:40:13.206Z,9.745473
2023-04-23T09:41:13.156Z,9.745547
2023-04-23T09:42:13.155Z,9.745604
2023-04-23T09:43:13.141Z,9.745738
2023-04-23T09:44:13.135Z,9.745607
2023-04-23T09:45:13.150Z,9.745747
2023-04-23T09:46:13.151Z,9.745946
2023-04-23T09:47:13.109Z,9.745871
2023-04-23T09:48:13.101Z,9.745805
2023-04-23T09:49:13.099Z,9.745661
2023-04-23T09:50:13.117Z,9.745820
2023-04-23T09:51:13.107Z,9.745728
2023-04-23T09:52:13.073Z,9.745523
2023-04-23T09:53:13.061Z,9.745552
2023-04-23T09:54:13.056Z,9.745684
2023-04-23T09:55:13.046Z,9.745887
2023-04-23T09:56:13.065Z,9.746060
2023-04-23T09:57:13.027Z,9.745854
2023-04-23T09:58:13.029Z,9.745790
2023-04-23T09:59:13.014Z,9.745711
2023-04-23T10:00:14.796Z,9.745695
2023-04-23T10:01:14.106Z,9.745837
2023-04-23T10:02:13.130Z,9.745921
2023-04-23T10:03:13.097Z,9.745964
2023-04-23T10:04:13.150Z,9.746029
2023-04-23T10:05:23.546Z,9.745919
2023-04-23T10:06:25.894Z,9.745776
2023-04-23T10:07:19.634Z,9.745843
2023-04-23T10:08:14.946Z,9.745629
2023-04-23T10:09:12.941Z,9.745539
2023-04-23T10:10:12.960Z,9.745630
2023-04-23T10:11:20.674Z,9.745754
2023-04-23T10:13:13.908Z,9.745570
2023-04-23T10:14:12.897Z,9.745562
2023-04-23T10:15:12.882Z,9.745579
2023-04-23T10:16:22.194Z,9.745517
2023-04-23T10:17:14.881Z,9.745375
2023-04-23T10:18:12.877Z,9.745566
2023-04-23T10:19:13.457Z,9.745685
2023-04-23T10:20:12.881Z,9.745706
2023-04-23T10:21:12.842Z,9.745638
2023-04-23T10:23:13.830Z,9.745525
2023-04-23T10:24:12.826Z,9.745762
2023-04-23T10:25:12.820Z,9.745713
2023-04-23T10:26:12.837Z,9.745734
2023-04-23T10:27:24.819Z,9.745693
2023-04-23T10:28:14.787Z,9.745587
2023-04-23T10:29:12.787Z,9.745756
2023-04-23T10:30:12.805Z,9.745762
2023-04-23T10:31:12.788Z,9.745667
2023-04-23T10:32:12.800Z,9.745751
2023-04-23T10:33:22.442Z,9.745661
2023-04-23T10:34:14.771Z,9.745727
2023-04-23T10:35:12.742Z,9.745839
2023-04-23T10:36:12.754Z,9.745691
2023-04-23T10:37:12.720Z,9.745668
2023-04-23T10:38:13.713Z,9.745814
2023-04-23T10:39:12.707Z,9.745766
2023-04-23T10:40:12.727Z,9.745718
2023-04-23T10:41:12.690Z,9.745502
2023-04-23T10:42:12.681Z,9.745491
2023-04-23T10:43:12.670Z,9.745714
2023-04-23T10:44:12.658Z,9.745749
2023-04-23T10:45:23.399Z,9.745806
2023-04-23T10:46:14.717Z,9.745655
2023-04-23T10:47:12.643Z,9.745607
2023-04-23T10:48:12.634Z,9.745625
2023-04-23T10:49:12.629Z,9.745678
2023-04-23T10:50:12.614Z,9.745622
2023-04-23T10:51:53.143Z,9.745665
2023-04-23T10:52:20.673Z,9.745554
2023-04-23T10:53:14.636Z,9.745588
2023-04-23T10:54:12.580Z,9.745583
2023-04-23T10:55:12.574Z,9.745517
2023-04-23T10:56:12.590Z,9.745425
2023-04-23T10:57:12.561Z,9.745792
2023-04-23T10:58:12.550Z,9.745628
2023-04-23T10:59:12.550Z,9.745490
2023-04-23T11:00:12.540Z,9.745646
2023-04-23T11:01:12.559Z,9.746056
2023-04-23T11:02:12.598Z,9.745519
2023-04-23T11:03:12.648Z,9.745500
2023-04-23T11:04:12.658Z,9.745687
2023-04-23T11:05:12.504Z,9.745450
2023-04-23T11:06:12.514Z,9.745496
2023-04-23T11:07:13.488Z,9.745253
2023-04-23T11:08:19.296Z,9.745138
2023-04-23T11:09:14.477Z,9.745376
2023-04-23T11:10:12.462Z,9.745331
2023-04-23T11:11:12.477Z,9.745284
2023-04-23T11:12:12.454Z,9.745344
2023-04-23T11:13:12.435Z,9.745400
2023-04-23T11:14:12.444Z,9.745439
2023-04-23T11:15:12.428Z,9.745447
2023-04-23T11:16:12.447Z,9.745623
2023-04-23T11:17:12.412Z,9.745258
2023-04-23T11:18:12.400Z,9.745064
2023-04-23T11:19:12.433Z,9.745255
2023-04-23T11:20:12.381Z,9.745415
2023-04-23T11:21:12.403Z,9.745588
2023-04-23T11:22:12.369Z,9.746093
2023-04-23T11:23:12.354Z,9.745728
2023-04-23T11:24:12.370Z,9.745761
2023-04-23T11:25:12.348Z,9.745491
2023-04-23T11:26:12.375Z,9.745399
2023-04-23T11:27:12.331Z,9.745427
2023-04-23T11:28:12.324Z,9.745440
2023-04-23T11:29:12.324Z,9.745386
2023-04-23T11:30:12.342Z,9.745289
2023-04-23T11:31:12.323Z,9.745278
2023-04-23T11:32:12.310Z,9.745432
2023-04-23T11:33:12.314Z,9.745335
2023-04-23T11:34:12.275Z,9.745416
2023-04-23T11:35:13.730Z,9.745577
2023-04-23T11:36:13.296Z,9.745495
2023-04-23T11:37:12.254Z,9.745356
2023-04-23T11:38:12.262Z,9.745039
2023-04-23T11:39:12.246Z,9.745553
2023-04-23T11:40:12.246Z,9.745708
2023-04-23T11:41:12.263Z,9.745713
2023-04-23T11:42:12.240Z,9.746114
2023-04-23T11:43:12.212Z,9.745777
2023-04-23T11:44:12.197Z,9.745240
2023-04-23T11:45:12.184Z,9.745228
2023-04-23T11:46:12.235Z,9.745471